Time;durP1;ratioP1;P1;durP2;ratioP2;P2;SDS_P1;SDS_P2;PMS_P1;PMS_P2;Temp;Humidity;BMP_temperature;BMP_pressure;BME280_temperature;BME280_humidity;BME280_pressure;Samples;Min_cycle;Max_cycle;Signal;HPM_P1;HPM_P2
2021/11/25 00:00:12;;;;;;;19.57;9.93;;;3.70;97.30;;;;;;5041345;28;20319;-82
2021/11/25 00:02:39;;;;;;;33.40;11.73;;;3.70;97.30;;;;;;5052291;28;20195;-82
2021/11/25 00:05:06;;;;;;;29.33;11.90;;;3.70;97.30;;;;;;5053919;28;20195;-82
2021/11/25 00:07:32;;;;;;;27.33;12.00;;;3.70;97.30;;;;;;5053067;28;20426;-82
2021/11/25 00:09:57;;;;;;;28.00;10.80;;;3.70;97.30;;;;;;5053330;28;20476;-82
2021/11/25 00:12:23;;;;;;;32.23;11.77;;;3.60;97.30;;;;;;5051535;28;20187;-82
2021/11/25 00:14:48;;;;;;;23.20;11.40;;;3.60;97.30;;;;;;5051288;28;20245;-83
2021/11/25 00:17:14;;;;;;;32.93;12.17;;;3.50;97.30;;;;;;5049692;28;20207;-83
2021/11/25 00:19:40;;;;;;;38.67;12.60;;;3.50;97.30;;;;;;5051934;28;20180;-83
2021/11/25 00:22:05;;;;;;;28.57;11.33;;;3.50;97.30;;;;;;5049894;28;20291;-83
2021/11/25 00:24:31;;;;;;;28.43;12.10;;;3.40;97.30;;;;;;5049974;28;20854;-83
2021/11/25 00:26:57;;;;;;;25.87;11.40;;;3.40;97.30;;;;;;5051488;28;20291;-83
2021/11/25 00:29:24;;;;;;;26.00;10.57;;;3.40;97.30;;;;;;5049745;28;20183;-84
2021/11/25 00:31:49;;;;;;;29.40;12.33;;;3.30;97.30;;;;;;5050363;28;20180;-84
2021/11/25 00:34:15;;;;;;;24.80;11.73;;;3.30;97.30;;;;;;5051285;28;20997;-83
2021/11/25 00:36:41;;;;;;;25.13;11.10;;;3.20;97.30;;;;;;5056691;28;20343;-83
2021/11/25 00:39:07;;;;;;;24.10;10.03;;;3.10;97.30;;;;;;5051376;28;20184;-83
2021/11/25 00:41:33;;;;;;;26.70;12.20;;;3.00;97.30;;;;;;5051250;28;20187;-83
2021/11/25 00:43:58;;;;;;;30.50;12.17;;;2.90;97.30;;;;;;5051393;28;20556;-83
2021/11/25 00:46:24;;;;;;;20.97;11.13;;;2.90;97.30;;;;;;5050764;28;20557;-83
2021/11/25 00:48:49;;;;;;;27.23;10.40;;;2.70;97.30;;;;;;5051308;28;20187;-83
2021/11/25 00:51:15;;;;;;;26.10;10.63;;;2.60;97.30;;;;;;5051222;28;20183;-83
2021/11/25 00:53:41;;;;;;;28.83;10.57;;;2.50;97.30;;;;;;5052326;28;20190;-82
2021/11/25 00:56:06;;;;;;;27.23;11.10;;;2.40;97.30;;;;;;5052582;28;20580;-82
2021/11/25 00:58:32;;;;;;;32.80;11.83;;;2.30;97.30;;;;;;5053684;28;20180;-82
2021/11/25 01:00:57;;;;;;;36.03;14.63;;;2.20;97.30;;;;;;5054811;28;20187;-82
2021/11/25 01:03:23;;;;;;;31.53;13.70;;;2.10;97.30;;;;;;5048947;28;20211;-82
2021/11/25 01:05:49;;;;;;;33.77;13.33;;;2.00;97.30;;;;;;5046460;28;20195;-82
2021/11/25 01:08:16;;;;;;;36.07;13.77;;;2.00;97.30;;;;;;5056263;28;20272;-82
2021/11/25 01:10:41;;;;;;;30.30;12.97;;;1.90;97.30;;;;;;5056264;28;20595;-81
2021/11/25 01:13:07;;;;;;;34.53;14.20;;;1.80;97.30;;;;;;5058184;28;20421;-83
2021/11/25 01:15:34;;;;;;;32.67;15.60;;;1.80;97.30;;;;;;5055958;28;20200;-83
2021/11/25 01:18:03;;;;;;;41.07;14.37;;;1.70;97.30;;;;;;5055078;28;20290;-83
2021/11/25 01:20:30;;;;;;;31.83;11.83;;;1.70;97.30;;;;;;5054555;28;20433;-83
2021/11/25 01:22:57;;;;;;;40.77;13.57;;;1.70;97.30;;;;;;5054949;28;20487;-83
2021/11/25 01:25:22;;;;;;;33.83;12.87;;;1.80;97.30;;;;;;5043744;28;20441;-83
2021/11/25 01:27:48;;;;;;;30.00;13.50;;;1.80;97.30;;;;;;5054807;28;20430;-83
2021/11/25 01:30:15;;;;;;;29.90;12.80;;;1.90;97.30;;;;;;5054742;28;20192;-83
2021/11/25 01:32:40;;;;;;;33.57;14.50;;;1.80;97.30;;;;;;5054775;28;20319;-83
2021/11/25 01:35:07;;;;;;;35.17;11.73;;;1.80;97.30;;;;;;5054530;28;20971;-83
2021/11/25 01:37:33;;;;;;;35.77;12.40;;;1.80;97.30;;;;;;5054825;28;20180;-84
2021/11/25 01:39:58;;;;;;;33.13;11.77;;;1.70;97.30;;;;;;5054741;28;20487;-83
2021/11/25 01:42:24;;;;;;;32.60;13.10;;;1.60;97.30;;;;;;5054678;28;20453;-83
2021/11/25 01:44:50;;;;;;;29.17;11.30;;;1.50;97.30;;;;;;5054792;28;20214;-82
2021/11/25 01:47:16;;;;;;;32.23;12.63;;;1.40;97.30;;;;;;5072935;28;20236;-82
2021/11/25 01:49:42;;;;;;;33.73;12.27;;;1.40;97.30;;;;;;5054398;28;20417;-82
2021/11/25 01:52:07;;;;;;;27.27;11.63;;;1.30;97.30;;;;;;5054880;28;20414;-81
2021/11/25 01:54:33;;;;;;;33.53;13.83;;;1.20;97.30;;;;;;5055362;28;20192;-82
2021/11/25 01:56:59;;;;;;;30.00;12.23;;;1.10;97.30;;;;;;5054817;28;20203;-82
2021/11/25 01:59:25;;;;;;;31.40;12.60;;;1.00;97.30;;;;;;5053503;28;20234;-82
2021/11/25 02:01:52;;;;;;;30.70;11.60;;;1.00;97.30;;;;;;5055180;28;20184;-82
2021/11/25 02:04:17;;;;;;;27.17;10.83;;;0.90;97.30;;;;;;5054545;28;20469;-82
2021/11/25 02:06:43;;;;;;;31.17;11.90;;;0.80;97.30;;;;;;5054707;28;20444;-81
2021/11/25 02:09:10;;;;;;;39.10;13.37;;;0.80;97.30;;;;;;5054255;28;20493;-83
2021/11/25 02:11:37;;;;;;;37.60;12.03;;;0.80;97.30;;;;;;5053231;28;20595;-82
2021/11/25 02:14:03;;;;;;;31.87;12.40;;;0.80;97.30;;;;;;5062151;28;20417;-82
2021/11/25 02:16:29;;;;;;;32.53;13.37;;;0.80;97.30;;;;;;5072988;28;20464;-83
2021/11/25 02:18:58;;;;;;;30.00;12.67;;;0.80;97.30;;;;;;5073231;28;20417;-82
2021/11/25 02:21:25;;;;;;;32.77;12.40;;;0.90;97.30;;;;;;5073244;28;20186;-82
2021/11/25 02:23:51;;;;;;;34.87;13.03;;;0.90;97.30;;;;;;5072496;28;20562;-83
2021/11/25 02:26:16;;;;;;;32.10;12.80;;;0.80;97.30;;;;;;5073026;28;20540;-83
2021/11/25 02:28:42;;;;;;;37.50;13.03;;;0.80;97.30;;;;;;5059754;28;20602;-82
2021/11/25 02:31:08;;;;;;;28.30;12.03;;;0.70;97.30;;;;;;5055255;28;20180;-82
2021/11/25 02:33:36;;;;;;;36.17;13.20;;;0.70;97.30;;;;;;5076725;28;20186;-83
2021/11/25 02:36:02;;;;;;;32.93;14.20;;;0.60;97.30;;;;;;5074523;28;20489;-83
2021/11/25 02:38:28;;;;;;;33.77;12.80;;;0.70;97.30;;;;;;5073913;28;20421;-83
2021/11/25 02:40:56;;;;;;;34.77;12.20;;;0.70;97.30;;;;;;5073864;28;20445;-82
2021/11/25 02:43:28;;;;;;;31.00;12.73;;;0.80;97.30;;;;;;5056634;28;20200;-83
2021/11/25 02:46:00;;;;;;;35.80;12.77;;;0.90;97.30;;;;;;5053885;28;20439;-83
2021/11/25 02:48:48;;;;;;;41.60;13.80;;;1.00;97.30;;;;;;5064617;28;20417;-83
2021/11/25 02:51:20;;;;;;;34.10;14.27;;;1.10;97.30;;;;;;5074515;28;20919;-83
2021/11/25 02:53:49;;;;;;;38.37;12.20;;;1.10;97.30;;;;;;5073715;28;20409;-83
2021/11/25 02:56:18;;;;;;;33.07;13.83;;;1.20;97.30;;;;;;5073507;28;20437;-83
2021/11/25 02:58:46;;;;;;;27.77;12.03;;;1.20;97.30;;;;;;5073868;28;20496;-83
2021/11/25 03:01:18;;;;;;;35.30;14.00;;;1.30;97.30;;;;;;5073590;28;20413;-83
2021/11/25 03:03:44;;;;;;;28.77;12.00;;;1.30;97.30;;;;;;5073665;28;20514;-83
2021/11/25 03:06:11;;;;;;;36.40;13.10;;;1.30;97.30;;;;;;5066175;28;20442;-84
2021/11/25 03:08:37;;;;;;;31.23;13.03;;;1.30;97.30;;;;;;5052065;28;20990;-83
2021/11/25 03:11:09;;;;;;;36.17;13.70;;;1.40;97.30;;;;;;5052058;28;20421;-83
2021/11/25 03:13:39;;;;;;;39.93;14.60;;;1.40;97.30;;;;;;5052045;28;21011;-84
2021/11/25 03:16:05;;;;;;;34.60;13.10;;;1.50;97.30;;;;;;5049933;28;20525;-82
2021/11/25 03:18:31;;;;;;;34.60;12.53;;;1.50;97.30;;;;;;5053356;28;20498;-82
2021/11/25 03:20:58;;;;;;;39.80;13.63;;;1.50;97.30;;;;;;5053764;28;20415;-82
2021/11/25 03:23:27;;;;;;;35.27;14.07;;;1.50;97.30;;;;;;5052237;28;20482;-82
2021/11/25 03:25:54;;;;;;;31.60;12.40;;;1.60;97.30;;;;;;5056505;28;20441;-83
2021/11/25 03:28:20;;;;;;;38.13;12.80;;;1.60;97.30;;;;;;5072629;28;20946;-83
2021/11/25 03:30:53;;;;;;;42.63;14.83;;;1.60;97.30;;;;;;5073259;28;20418;-83
2021/11/25 03:33:20;;;;;;;33.63;14.33;;;1.70;97.30;;;;;;5073754;28;20179;-83
2021/11/25 03:35:46;;;;;;;32.43;12.73;;;1.70;97.30;;;;;;5070327;28;20433;-83
2021/11/25 03:38:11;;;;;;;39.90;13.40;;;1.80;97.30;;;;;;5052752;28;20517;-82
2021/11/25 03:40:37;;;;;;;31.57;12.67;;;1.80;97.30;;;;;;5052000;28;20521;-83
2021/11/25 03:43:03;;;;;;;42.10;15.53;;;1.80;97.30;;;;;;5052256;28;20215;-82
2021/11/25 03:45:28;;;;;;;29.60;13.63;;;1.90;97.30;;;;;;5052758;28;20200;-81
2021/11/25 03:47:54;;;;;;;29.90;12.47;;;1.90;97.30;;;;;;5053787;28;20229;-81
2021/11/25 03:50:20;;;;;;;30.77;12.93;;;1.90;97.30;;;;;;5054229;28;20183;-82
2021/11/25 03:52:45;;;;;;;39.27;13.23;;;1.90;97.30;;;;;;5053470;28;20211;-81
2021/11/25 03:55:13;;;;;;;32.77;13.27;;;1.90;97.30;;;;;;5053742;28;20253;-81
2021/11/25 03:57:39;;;;;;;40.93;13.07;;;2.00;97.30;;;;;;5053491;28;20226;-81
2021/11/25 04:00:08;;;;;;;34.13;13.07;;;2.00;97.30;;;;;;5055107;28;20406;-81
2021/11/25 04:02:33;;;;;;;30.83;13.97;;;2.10;97.30;;;;;;5053434;28;20923;-82
2021/11/25 04:04:59;;;;;;;29.80;12.80;;;2.10;97.30;;;;;;5052789;28;20612;-82
2021/11/25 04:07:25;;;;;;;37.13;13.90;;;2.10;97.30;;;;;;5053683;28;20186;-82
2021/11/25 04:09:50;;;;;;;37.27;13.50;;;2.20;97.30;;;;;;5053574;28;20203;-81
2021/11/25 04:12:16;;;;;;;29.43;12.80;;;2.20;97.30;;;;;;5055007;28;20192;-81
2021/11/25 04:14:41;;;;;;;28.73;12.90;;;2.20;97.30;;;;;;5053482;28;20245;-81
2021/11/25 04:17:07;;;;;;;25.30;12.00;;;2.20;97.30;;;;;;5053479;28;20705;-81
2021/11/25 04:19:32;;;;;;;32.47;12.30;;;2.20;97.30;;;;;;5053543;28;20211;-82
2021/11/25 04:21:58;;;;;;;35.07;13.60;;;2.20;97.30;;;;;;5052629;28;20284;-81
2021/11/25 04:24:23;;;;;;;32.20;12.77;;;2.20;97.30;;;;;;5053022;28;20242;-81
2021/11/25 04:26:49;;;;;;;32.33;13.50;;;2.20;97.30;;;;;;5053251;28;20195;-83
2021/11/25 04:29:15;;;;;;;31.13;13.27;;;2.20;97.30;;;;;;5064251;28;20665;-82
2021/11/25 04:37:12;;;;;;;31.60;12.80;;;2.30;97.30;;;;;;5051572;28;20469;-82
2021/11/25 04:39:37;;;;;;;27.90;11.20;;;2.30;97.30;;;;;;5033657;28;20889;-82
2021/11/25 04:42:03;;;;;;;27.97;11.50;;;2.40;97.30;;;;;;5033456;28;20216;-83
2021/11/25 04:44:29;;;;;;;32.30;14.07;;;2.40;97.30;;;;;;5051519;28;20223;-81
2021/11/25 04:46:55;;;;;;;36.73;13.73;;;2.40;97.30;;;;;;5052555;28;20445;-81
2021/11/25 04:49:20;;;;;;;29.60;11.53;;;2.40;97.30;;;;;;5053576;28;20245;-82
2021/11/25 04:51:46;;;;;;;29.33;12.90;;;2.40;97.30;;;;;;5055955;28;20180;-81
2021/11/25 04:54:12;;;;;;;34.43;12.20;;;2.40;97.30;;;;;;5041150;28;20561;-84
2021/11/25 04:56:38;;;;;;;29.87;11.73;;;2.50;97.30;;;;;;5040162;28;20290;-81
2021/11/25 04:59:04;;;;;;;29.93;11.33;;;2.50;97.30;;;;;;5054013;28;20411;-81
2021/11/25 05:01:30;;;;;;;31.60;13.07;;;2.50;97.30;;;;;;5054182;28;20179;-82
2021/11/25 05:03:55;;;;;;;24.30;11.10;;;2.50;97.30;;;;;;5054776;28;20286;-82
2021/11/25 05:06:21;;;;;;;29.47;12.47;;;2.50;97.30;;;;;;5055762;28;20461;-82
2021/11/25 05:08:47;;;;;;;25.77;11.90;;;2.50;97.30;;;;;;5055274;28;20172;-82
2021/11/25 05:11:13;;;;;;;34.33;12.87;;;2.50;97.30;;;;;;5054521;28;20179;-82
2021/11/25 05:13:39;;;;;;;26.27;11.47;;;2.50;97.30;;;;;;5054469;28;20176;-82
2021/11/25 05:16:05;;;;;;;31.47;12.87;;;2.60;97.30;;;;;;5048000;28;20434;-84
2021/11/25 05:18:31;;;;;;;28.50;12.60;;;2.60;97.30;;;;;;5050744;28;20884;-83
2021/11/25 05:20:57;;;;;;;29.60;11.47;;;2.60;97.30;;;;;;5053130;28;20429;-84
2021/11/25 05:23:23;;;;;;;24.07;10.80;;;2.70;97.30;;;;;;5042736;28;20240;-83
2021/11/25 05:25:48;;;;;;;29.47;12.13;;;2.70;97.30;;;;;;5036179;28;20204;-84
2021/11/25 05:28:14;;;;;;;27.70;10.33;;;2.70;97.30;;;;;;5049525;28;20794;-83
2021/11/25 05:30:40;;;;;;;27.70;11.53;;;2.80;97.30;;;;;;5039961;28;20174;-82
2021/11/25 05:33:07;;;;;;;27.33;12.00;;;2.70;97.30;;;;;;5058818;28;20188;-82
2021/11/25 05:35:32;;;;;;;25.63;11.20;;;2.70;97.30;;;;;;5043457;28;20299;-82
2021/11/25 05:37:58;;;;;;;27.13;10.80;;;2.70;97.30;;;;;;5067288;28;20946;-82
2021/11/25 05:40:24;;;;;;;26.97;11.33;;;2.70;97.30;;;;;;5070488;28;20186;-82
2021/11/25 05:42:49;;;;;;;26.40;11.03;;;2.70;97.30;;;;;;5036758;28;20446;-83
2021/11/25 05:45:18;;;;;;;28.53;11.87;;;2.70;97.30;;;;;;5060086;28;20743;-83
2021/11/25 05:47:46;;;;;;;27.60;10.53;;;2.70;97.30;;;;;;5063071;28;20210;-82
2021/11/25 05:50:18;;;;;;;26.40;11.53;;;2.70;97.30;;;;;;5055271;28;20510;-82
2021/11/25 05:52:45;;;;;;;27.37;11.57;;;2.70;97.30;;;;;;5036439;28;20484;-81
2021/11/25 05:55:10;;;;;;;30.93;11.43;;;2.70;97.30;;;;;;5043686;28;20415;-82
2021/11/25 05:57:36;;;;;;;29.10;11.93;;;2.60;97.30;;;;;;5055650;28;20467;-82
2021/11/25 06:00:05;;;;;;;22.20;10.33;;;2.60;97.30;;;;;;5068408;28;20182;-82
2021/11/25 06:02:31;;;;;;;25.70;11.00;;;2.60;97.30;;;;;;5055117;28;20176;-83
2021/11/25 06:04:56;;;;;;;25.20;10.67;;;2.60;97.30;;;;;;5055625;28;20454;-82
2021/11/25 06:07:22;;;;;;;26.93;11.83;;;2.70;97.30;;;;;;5055665;28;20183;-82
2021/11/25 06:09:47;;;;;;;31.60;12.80;;;2.70;97.30;;;;;;5056334;28;20172;-83
2021/11/25 06:12:13;;;;;;;28.70;11.87;;;2.70;97.30;;;;;;5056652;28;20176;-83
2021/11/25 06:14:38;;;;;;;24.50;11.20;;;2.70;97.30;;;;;;5072826;28;20179;-82
2021/11/25 06:17:04;;;;;;;27.90;11.77;;;2.70;97.30;;;;;;5051547;28;20209;-82
2021/11/25 06:19:30;;;;;;;26.10;10.90;;;2.70;97.30;;;;;;5044678;28;20184;-83
2021/11/25 06:21:57;;;;;;;25.10;11.40;;;2.70;97.30;;;;;;5067322;28;20469;-83
2021/11/25 06:24:23;;;;;;;29.00;11.17;;;2.70;97.30;;;;;;5061705;28;20235;-83
2021/11/25 06:26:50;;;;;;;32.20;12.63;;;2.70;97.30;;;;;;5072571;28;20441;-82
2021/11/25 06:29:17;;;;;;;28.33;12.07;;;2.70;97.30;;;;;;5055955;28;20194;-82
2021/11/25 06:31:43;;;;;;;31.90;13.00;;;2.70;97.30;;;;;;5049850;28;20437;-82
2021/11/25 06:34:09;;;;;;;28.80;11.23;;;2.80;97.30;;;;;;5047910;28;20422;-82
2021/11/25 06:36:35;;;;;;;26.73;11.83;;;2.80;97.30;;;;;;5051210;28;20569;-82
2021/11/25 06:39:01;;;;;;;24.07;12.13;;;2.80;97.30;;;;;;5054124;28;20406;-82
2021/11/25 06:41:27;;;;;;;30.40;12.57;;;2.80;97.30;;;;;;5051865;28;20195;-82
2021/11/25 06:43:53;;;;;;;27.60;12.60;;;2.90;97.30;;;;;;5049481;28;21326;-82
2021/11/25 06:46:18;;;;;;;22.90;10.97;;;2.90;97.30;;;;;;5050646;28;20196;-82
2021/11/25 06:48:44;;;;;;;28.57;12.67;;;2.90;97.30;;;;;;5042498;28;20195;-82
2021/11/25 06:51:09;;;;;;;26.33;11.33;;;2.90;97.30;;;;;;5045610;28;20230;-81
2021/11/25 06:53:35;;;;;;;22.10;9.70;;;2.80;97.30;;;;;;5047333;28;20646;-82
2021/11/25 06:56:00;;;;;;;26.87;11.30;;;2.80;97.30;;;;;;5043923;28;20196;-82
2021/11/25 06:58:27;;;;;;;23.47;10.03;;;2.80;97.30;;;;;;5046432;28;20172;-82
2021/11/25 07:00:52;;;;;;;22.10;9.97;;;2.80;97.30;;;;;;5045588;28;20578;-81
2021/11/25 07:03:18;;;;;;;23.40;9.90;;;2.80;97.30;;;;;;5061810;28;20460;-82
2021/11/25 07:05:45;;;;;;;21.03;9.73;;;2.80;97.30;;;;;;5060145;28;20196;-82
2021/11/25 07:08:11;;;;;;;26.93;11.17;;;2.80;97.30;;;;;;5046914;28;20506;-84
2021/11/25 07:10:36;;;;;;;20.10;9.90;;;2.80;97.30;;;;;;5056203;28;20464;-83
2021/11/25 07:13:02;;;;;;;20.17;10.43;;;2.80;97.30;;;;;;5036040;28;20267;-83
2021/11/25 07:15:28;;;;;;;25.70;10.73;;;2.90;97.30;;;;;;5033836;28;20945;-83
2021/11/25 07:17:55;;;;;;;27.27;10.43;;;2.90;97.30;;;;;;5034894;28;20179;-81
2021/11/25 07:20:21;;;;;;;29.00;11.13;;;3.00;97.30;;;;;;5051821;28;20257;-81
2021/11/25 07:22:47;;;;;;;28.27;11.67;;;3.00;97.30;;;;;;5055239;28;20466;-81
2021/11/25 07:25:15;;;;;;;29.10;11.00;;;3.00;97.30;;;;;;5055020;28;20212;-82
2021/11/25 07:27:41;;;;;;;28.20;11.60;;;3.00;97.30;;;;;;5054309;28;20464;-82
2021/11/25 07:30:10;;;;;;;33.73;12.43;;;3.00;97.30;;;;;;5054393;28;20410;-79
2021/11/25 07:32:36;;;;;;;31.90;14.40;;;3.10;97.30;;;;;;5062298;28;20931;-82
2021/11/25 07:35:03;;;;;;;34.83;13.87;;;3.00;97.30;;;;;;5073272;28;20421;-82
2021/11/25 07:37:28;;;;;;;31.83;11.17;;;3.00;97.30;;;;;;5072883;28;20458;-82
2021/11/25 07:39:54;;;;;;;28.17;11.13;;;3.00;97.30;;;;;;5072820;28;20417;-82
2021/11/25 07:42:20;;;;;;;18.63;9.07;;;3.00;97.30;;;;;;5074019;28;20182;-82
2021/11/25 07:44:45;;;;;;;30.90;11.23;;;2.90;97.30;;;;;;5072783;28;20202;-81
2021/11/25 07:47:11;;;;;;;23.93;9.87;;;2.90;97.30;;;;;;5072555;28;20673;-83
2021/11/25 07:49:38;;;;;;;27.97;11.40;;;3.00;97.30;;;;;;5072256;28;20166;-82
2021/11/25 07:52:05;;;;;;;24.53;11.50;;;3.00;97.30;;;;;;5072444;28;20501;-82
2021/11/25 07:54:31;;;;;;;26.00;11.57;;;3.00;97.30;;;;;;5072160;28;20949;-82
2021/11/25 07:57:00;;;;;;;47.17;16.43;;;3.10;97.30;;;;;;5072536;28;20429;-81
2021/11/25 07:59:27;;;;;;;47.27;17.73;;;3.10;97.30;;;;;;5072179;28;20225;-82
2021/11/25 08:01:55;;;;;;;44.30;15.50;;;3.10;97.30;;;;;;5072498;28;20938;-82
2021/11/25 08:04:21;;;;;;;42.03;16.37;;;3.10;97.30;;;;;;5071357;28;20967;-82
2021/11/25 08:06:47;;;;;;;33.87;13.07;;;3.10;97.30;;;;;;5072187;28;20487;-83
2021/11/25 08:09:12;;;;;;;26.13;11.37;;;3.00;97.30;;;;;;5072943;28;20163;-82
2021/11/25 08:11:38;;;;;;;24.57;10.90;;;3.00;97.30;;;;;;5071997;28;20182;-82
2021/11/25 08:14:03;;;;;;;26.50;11.43;;;3.00;97.30;;;;;;5071935;28;20671;-82
2021/11/25 08:16:29;;;;;;;26.47;11.83;;;3.10;97.30;;;;;;5071569;28;20612;-83
2021/11/25 08:18:54;;;;;;;26.30;9.93;;;3.10;97.30;;;;;;5072109;28;20179;-82
2021/11/25 08:21:22;;;;;;;25.67;9.57;;;3.20;97.30;;;;;;5071484;28;20267;-82
2021/11/25 08:23:48;;;;;;;27.70;10.77;;;3.20;97.30;;;;;;5071495;28;20226;-82
2021/11/25 08:26:13;;;;;;;23.87;11.27;;;3.30;97.30;;;;;;5071862;28;20456;-82
2021/11/25 08:28:41;;;;;;;25.87;10.10;;;3.20;97.30;;;;;;5071487;28;20263;-82
2021/11/25 08:31:07;;;;;;;21.67;10.23;;;3.30;97.30;;;;;;5071564;28;20177;-82
2021/11/25 08:33:33;;;;;;;22.83;9.73;;;3.30;97.30;;;;;;5071463;28;20433;-80
2021/11/25 08:36:00;;;;;;;25.40;11.53;;;3.40;97.30;;;;;;5071385;28;20473;-82
2021/11/25 08:38:28;;;;;;;25.13;10.10;;;3.40;97.30;;;;;;5071470;28;20492;-82
2021/11/25 08:40:55;;;;;;;30.57;10.60;;;3.50;97.30;;;;;;5071881;28;20954;-82
2021/11/25 08:43:21;;;;;;;23.17;10.00;;;3.50;97.30;;;;;;5071431;28;20461;-82
2021/11/25 08:45:48;;;;;;;27.57;10.60;;;3.50;97.30;;;;;;5071384;28;20430;-82
2021/11/25 08:48:14;;;;;;;25.70;10.30;;;3.40;97.30;;;;;;5071386;28;20500;-82
2021/11/25 08:50:41;;;;;;;21.63;9.53;;;3.40;97.30;;;;;;5071262;28;20449;-83
2021/11/25 08:53:07;;;;;;;27.23;10.40;;;3.40;97.30;;;;;;5071244;28;20232;-81
2021/11/25 08:55:35;;;;;;;24.20;10.93;;;3.50;97.30;;;;;;5071278;28;20434;-81
2021/11/25 08:58:01;;;;;;;23.40;9.63;;;3.50;97.30;;;;;;5071044;28;20519;-83
2021/11/25 09:00:27;;;;;;;28.00;9.90;;;3.50;97.30;;;;;;5071394;28;20401;-81
2021/11/25 09:02:53;;;;;;;29.80;11.73;;;3.50;97.30;;;;;;5070866;28;20417;-82
2021/11/25 09:05:19;;;;;;;25.53;10.20;;;3.50;97.30;;;;;;5071109;28;20817;-82
2021/11/25 09:07:44;;;;;;;26.43;9.70;;;3.50;97.30;;;;;;5071852;28;20266;-82
2021/11/25 09:10:11;;;;;;;23.57;9.73;;;3.50;97.30;;;;;;5071428;28;20175;-81
2021/11/25 09:12:37;;;;;;;28.07;10.90;;;3.50;97.30;;;;;;5071422;28;20167;-82
2021/11/25 09:15:03;;;;;;;26.23;10.30;;;3.50;97.30;;;;;;5072490;28;20803;-83
2021/11/25 09:17:28;;;;;;;25.80;11.43;;;3.50;97.30;;;;;;5071162;28;20210;-82
2021/11/25 09:19:54;;;;;;;20.83;9.00;;;3.50;97.30;;;;;;5071382;28;20435;-82
2021/11/25 09:22:19;;;;;;;22.93;10.87;;;3.50;97.30;;;;;;5072571;28;20262;-82
2021/11/25 09:24:46;;;;;;;25.70;11.30;;;3.60;97.30;;;;;;5075279;28;20195;-82
2021/11/25 09:27:12;;;;;;;20.97;9.30;;;3.50;97.30;;;;;;5075525;28;20195;-82
2021/11/25 09:29:37;;;;;;;23.00;9.73;;;3.50;97.30;;;;;;5075037;28;20761;-82
2021/11/25 09:32:03;;;;;;;25.10;10.63;;;3.50;97.30;;;;;;5074719;28;20174;-83
2021/11/25 09:34:29;;;;;;;31.53;11.23;;;3.50;97.30;;;;;;5075059;28;20190;-82
2021/11/25 09:36:55;;;;;;;21.67;8.93;;;3.50;97.30;;;;;;5075211;28;20809;-82
2021/11/25 09:39:25;;;;;;;23.80;10.53;;;3.50;97.30;;;;;;5074492;28;20428;-83
2021/11/25 09:41:51;;;;;;;25.17;10.33;;;3.50;97.30;;;;;;5075001;28;20186;-81
2021/11/25 09:44:16;;;;;;;23.03;9.30;;;3.50;97.30;;;;;;5074901;28;20449;-82
2021/11/25 09:46:42;;;;;;;26.50;10.20;;;3.50;97.30;;;;;;5074697;28;20582;-82
2021/11/25 09:49:08;;;;;;;24.77;10.23;;;3.50;97.30;;;;;;5074724;28;20183;-82
2021/11/25 09:51:34;;;;;;;29.73;13.10;;;3.60;97.30;;;;;;5074502;28;20834;-82
2021/11/25 09:54:00;;;;;;;30.20;12.07;;;3.60;97.30;;;;;;5074035;28;20405;-82
2021/11/25 09:56:26;;;;;;;29.57;11.87;;;3.70;97.30;;;;;;5074515;28;20221;-83
2021/11/25 09:58:52;;;;;;;24.33;10.27;;;3.70;97.30;;;;;;5072849;28;20417;-82
2021/11/25 10:01:21;;;;;;;21.03;9.83;;;3.70;97.30;;;;;;5054656;28;20325;-82
2021/11/25 10:03:50;;;;;;;24.20;9.97;;;3.70;97.30;;;;;;5054217;28;20696;-82
2021/11/25 10:06:21;;;;;;;27.10;9.87;;;3.70;97.30;;;;;;5054452;28;20444;-82
2021/11/25 10:08:48;;;;;;;23.40;10.20;;;3.80;97.30;;;;;;5054323;28;20792;-81
2021/11/25 10:11:20;;;;;;;26.23;10.70;;;3.70;97.30;;;;;;5055076;28;20778;-81
2021/11/25 10:13:54;;;;;;;25.37;11.40;;;3.70;97.30;;;;;;5054523;28;20932;-82
2021/11/25 10:16:28;;;;;;;32.97;10.77;;;3.70;97.30;;;;;;5054132;28;20446;-82
2021/11/25 10:18:55;;;;;;;24.90;10.87;;;3.70;97.30;;;;;;5054190;28;20493;-82
2021/11/25 10:21:25;;;;;;;28.67;10.70;;;3.60;97.30;;;;;;5055256;28;20445;-82
2021/11/25 10:23:53;;;;;;;30.33;11.27;;;3.60;97.30;;;;;;5054267;28;20470;-81
2021/11/25 10:26:37;;;;;;;29.57;12.07;;;3.60;97.30;;;;;;5054134;28;20440;-83
2021/11/25 10:29:08;;;;;;;30.93;12.50;;;3.60;97.30;;;;;;5054180;28;20422;-82
2021/11/25 10:31:37;;;;;;;26.37;11.83;;;3.60;97.30;;;;;;5054106;28;20418;-82
2021/11/25 10:34:13;;;;;;;33.03;12.80;;;3.60;97.30;;;;;;5055098;28;20411;-82
2021/11/25 10:41:51;;;;;;;36.23;11.83;;;3.60;97.30;;;;;;5055649;28;20896;-82
2021/11/25 10:44:23;;;;;;;27.60;11.80;;;3.60;97.30;;;;;;5053276;28;20472;-82
2021/11/25 10:47:07;;;;;;;25.80;11.20;;;3.60;97.30;;;;;;5053362;28;20521;-82
2021/11/25 10:49:44;;;;;;;27.03;12.27;;;3.60;97.30;;;;;;5053864;28;20480;-82
2021/11/25 10:52:16;;;;;;;32.30;12.47;;;3.60;97.30;;;;;;5053662;28;20426;-82
2021/11/25 10:54:49;;;;;;;42.07;12.73;;;3.60;97.30;;;;;;5054924;28;20490;-82
2021/11/25 10:57:15;;;;;;;27.47;11.40;;;3.60;97.30;;;;;;5053853;28;20513;-82
2021/11/25 10:59:48;;;;;;;27.03;12.07;;;3.70;97.30;;;;;;5056484;28;20453;-79
2021/11/25 11:02:31;;;;;;;29.23;11.50;;;3.60;97.30;;;;;;5056018;28;20452;-80
2021/11/25 11:05:10;;;;;;;27.57;11.50;;;3.60;97.30;;;;;;5055582;28;20832;-82
2021/11/25 11:07:38;;;;;;;30.77;11.47;;;3.60;97.30;;;;;;5058277;28;20411;-80
2021/11/25 11:10:30;;;;;;;29.60;11.63;;;3.60;97.30;;;;;;5057477;28;20410;-79
2021/11/25 11:13:15;;;;;;;29.10;11.10;;;3.70;97.30;;;;;;5050011;28;20445;-79
2021/11/25 11:18:53;;;;;;;26.57;10.40;;;3.70;97.30;;;;;;5053669;28;20406;-80
2021/11/25 11:21:31;;;;;;;27.93;11.00;;;3.80;97.30;;;;;;5050908;28;20455;-79
2021/11/25 11:24:00;;;;;;;29.17;11.70;;;3.80;97.30;;;;;;5052896;28;20480;-79
2021/11/25 11:26:26;;;;;;;29.57;12.50;;;3.80;97.30;;;;;;5051628;28;20477;-79
2021/11/25 11:28:52;;;;;;;34.17;12.90;;;3.80;97.30;;;;;;5053304;28;20406;-80
2021/11/25 11:31:18;;;;;;;32.70;12.50;;;3.80;97.30;;;;;;5051687;28;20468;-80
2021/11/25 11:33:45;;;;;;;38.20;12.37;;;3.80;97.30;;;;;;5051578;28;20782;-79
2021/11/25 11:36:11;;;;;;;29.80;11.47;;;3.80;97.30;;;;;;5051992;28;20582;-79
2021/11/25 11:38:37;;;;;;;35.80;12.20;;;3.70;97.30;;;;;;5051888;28;20418;-80
2021/11/25 11:41:03;;;;;;;36.90;12.50;;;3.70;97.30;;;;;;5051326;28;20402;-80
2021/11/25 11:43:30;;;;;;;35.43;11.87;;;3.70;97.30;;;;;;5051602;28;20222;-80
2021/11/25 11:45:57;;;;;;;41.40;14.50;;;3.70;97.30;;;;;;5050965;28;20430;-79
2021/11/25 11:48:23;;;;;;;33.00;11.70;;;3.80;97.30;;;;;;5051826;28;20505;-79
2021/11/25 11:50:54;;;;;;;26.57;11.73;;;3.80;97.30;;;;;;5051579;28;20410;-79
2021/11/25 11:53:21;;;;;;;30.27;12.60;;;3.80;97.30;;;;;;5051488;28;20406;-79
2021/11/25 11:55:56;;;;;;;30.97;11.40;;;3.80;97.30;;;;;;5051407;28;20434;-79
2021/11/25 11:58:40;;;;;;;34.20;12.87;;;3.80;97.30;;;;;;5051206;28;20807;-80
2021/11/25 12:01:12;;;;;;;30.60;12.70;;;3.80;97.30;;;;;;5051395;28;20411;-79
2021/11/25 12:03:47;;;;;;;35.30;13.20;;;3.80;97.30;;;;;;5051211;28;20541;-79
2021/11/25 12:06:35;;;;;;;27.30;10.83;;;3.90;97.30;;;;;;5051073;28;21063;-80
2021/11/25 12:09:12;;;;;;;28.63;10.73;;;3.80;97.30;;;;;;5051296;28;20777;-80
2021/11/25 12:11:42;;;;;;;26.40;10.60;;;3.80;97.30;;;;;;5051061;28;20406;-79
2021/11/25 12:14:29;;;;;;;27.37;11.60;;;3.80;97.30;;;;;;5050951;28;20998;-80
2021/11/25 12:17:03;;;;;;;32.27;11.97;;;3.70;97.30;;;;;;5050296;28;20438;-79
2021/11/25 12:19:44;;;;;;;30.87;13.47;;;3.70;97.30;;;;;;5051552;28;20495;-79
2021/11/25 12:22:09;;;;;;;23.87;11.40;;;3.70;97.30;;;;;;5050695;28;20510;-79
2021/11/25 12:24:57;;;;;;;27.50;11.20;;;3.80;97.30;;;;;;5051072;28;20469;-79
2021/11/25 12:27:27;;;;;;;27.80;11.20;;;3.70;97.30;;;;;;5051031;28;20669;-79
2021/11/25 12:29:56;;;;;;;32.17;12.07;;;3.80;97.30;;;;;;5050835;28;20422;-79
2021/11/25 12:35:11;;;;;;;29.27;12.20;;;3.80;97.30;;;;;;5052379;28;20438;-80
2021/11/25 12:37:49;;;;;;;30.47;11.17;;;3.80;97.30;;;;;;5051079;28;20418;-78
2021/11/25 12:40:21;;;;;;;29.40;11.13;;;3.80;97.30;;;;;;5050884;28;20424;-80
2021/11/25 12:42:52;;;;;;;24.97;10.37;;;3.80;97.30;;;;;;5050529;28;20437;-79
2021/11/25 12:45:18;;;;;;;29.47;11.90;;;3.80;97.30;;;;;;5050473;28;20520;-79
2021/11/25 12:47:45;;;;;;;26.27;13.07;;;3.80;97.30;;;;;;5050762;28;20913;-79
2021/11/25 12:50:21;;;;;;;29.17;9.80;;;3.90;97.30;;;;;;5051006;28;20421;-79
2021/11/25 12:52:47;;;;;;;29.10;11.80;;;3.90;97.30;;;;;;5051155;28;20480;-79
2021/11/25 12:55:15;;;;;;;23.50;10.27;;;3.90;97.30;;;;;;5051098;28;20453;-79